Record high temperature 39.4°C Record low temperature -14.6°C Record high gust 68.5 km/h Record high average 47.2 km/h Record daily rain 55.3 mm Record low windchill -17.5°C Record high barometer 1045.0 hPa Record low barometer 970.0 hPa
Daily high pressure 1017.0 hPa Daily low pressure 1016.0 hPa Daily low windchill 15.5°C Daily high heat index 18.7°C Daily high gust speed 16.5 kmh SSW Daily high average speed 10.0 kmh SSW

This page is updated from recent data collected by a WMR200 weather station Use the Reload or Refresh facility on your browser to retrieve the latest data.

Status report of weather station: Bienvenue sur la Station Météo de Godarville



Weather report/warning/Metars

Alexandroupoli Airport , Greece (LGAL) 40-51N 025-55E 3M
Jul 20, 2019 - 01:50 PM EDT / 2019.07.20 1750 UTC
Wind: from the ENE (060 degrees) at 9 MPH (8 KT):0
Visibility: greater than 7 mile(s):0
Temperature: 84 F (29 C)
Dew Point: 53 F (12 C)
Relative Humidity: 34%
Pressure (altimeter): 30.00 in. Hg (1016 hPa)
ob: LGAL 201750Z 06008KT CAVOK 29/12 Q1016
cycle: 18

Charleroi / Gosselies, Belgium (EBCI) 50-28N 004-27E 192M
Jul 20, 2019 - 09:20 PM EDT / 2019.07.21 0120 UTC
Wind: from the WSW (240 degrees) at 13 MPH (11 KT):0
Visibility: greater than 7 mile(s):0
Temperature: 59 F (15 C)
Dew Point: 55 F (13 C)
Relative Humidity: 87%
Pressure (altimeter): 30.06 in. Hg (1018 hPa)
ob: EBCI 210120Z 24011KT CAVOK 15/13 Q1018 NOSIG
cycle: 1

Bruxelles National, Belgium (EBBR) 50-54N 004-32E 58M
Jul 20, 2019 - 09:20 PM EDT / 2019.07.21 0120 UTC
Wind: from the WSW (250 degrees) at 12 MPH (10 KT):0
Visibility: greater than 7 mile(s):0
Temperature: 60 F (16 C)
Dew Point: 55 F (13 C)
Relative Humidity: 82%
Pressure (altimeter): 30.03 in. Hg (1017 hPa)
ob: EBBR 210120Z 25010KT CAVOK 16/13 Q1017 NOSIG
cycle: 1

Koksijde, Belgium (EBFN) 51-05N 002-39E 9M
Jul 20, 2019 - 09:25 PM EDT / 2019.07.21 0125 UTC
Wind: from the SW (230 degrees) at 7 MPH (6 KT):0
Visibility: 3 mile(s):0
Temperature: 57 F (14 C)
Dew Point: 55 F (13 C)
Relative Humidity: 93%
Pressure (altimeter): 30.00 in. Hg (1016 hPa)
ob: EBFN 210125Z AUTO 23006KT 5000 NCD 14/13 Q1016 WHT
cycle: 1

Poznan, Poland (EPPO) 52-25N 016-50E 92M
Jul 20, 2019 - 09:30 PM EDT / 2019.07.21 0130 UTC
Wind: from the WSW (250 degrees) at 5 MPH (4 KT):0
Visibility: greater than 7 mile(s):0
Sky conditions: partly cloudy
Weather: light rain showers; Cumulonimbus clouds observed
Temperature: 68 F (20 C)
Dew Point: 59 F (15 C)
Relative Humidity: 72%
Pressure (altimeter): 29.94 in. Hg (1014 hPa)
ob: EPPO 210130Z 25004KT 9999 -SHRA SCT033CB 20/15 Q1014 
cycle: 1



Coucher du Soleil:
21:44:03

Lever de Lune:
23:50:14 20/07/19

Coucher de Lune:
09:13:46 20/07/19

Premier Quartier 9 juillet 2019
Pleine Lune 16 juillet 2019
Dernier Quartier 25 juillet 2019
Nouvelle Lune 1 août 2019
Âge de lune : 18 jours,9 heures,40 minutes,86%
Les heures du jour possible étaient aujourd’hui 15:51



Use the RELOAD facility on your browser to retrieve the latest data.

Click here for a daily update of the averages/extremes to date for the month
Created by "Weather Display" software version 10.37P at this start time/date 20:51:51 11/07/2019